createdAt,value
2023-03-02T00:01:46.251Z,102733.16
2023-03-02T00:04:17.650Z,102724.69
2023-03-02T00:06:44.262Z,102737.47
2023-03-02T00:09:10.820Z,102738.75
2023-03-02T00:11:38.119Z,102725.88
2023-03-02T00:14:05.401Z,102729.09
2023-03-02T00:16:32.511Z,102725.13
2023-03-02T00:18:59.281Z,102718.38
2023-03-02T00:21:25.932Z,102726.75
2023-03-02T00:23:53.284Z,102728.81
2023-03-02T00:26:20.709Z,102724.03
2023-03-02T00:28:47.588Z,102717.53
2023-03-02T00:31:14.589Z,102722.47
2023-03-02T00:33:41.420Z,102714.78
2023-03-02T00:36:18.314Z,102715.69
2023-03-02T00:38:44.915Z,102717.09
2023-03-02T00:41:12.943Z,102719.31
2023-03-02T00:43:40.346Z,102711.16
2023-03-02T00:46:25.282Z,102719.53
2023-03-02T00:48:52.188Z,102713.09
2023-03-02T00:51:19.113Z,102713.09
2023-03-02T00:53:46.441Z,102711.13
2023-03-02T00:56:13.636Z,102703.38
2023-03-02T00:58:45.940Z,102693.56
2023-03-02T01:01:13.291Z,102710.97
2023-03-02T01:03:44.463Z,102706.91
2023-03-02T01:06:21.044Z,102706.00
2023-03-02T01:08:47.937Z,102703.38
2023-03-02T01:11:16.633Z,102699.84
2023-03-02T01:13:43.839Z,102706.00
2023-03-02T01:16:11.297Z,102701.78
2023-03-02T01:18:38.615Z,102701.09
2023-03-02T01:21:07.951Z,102702.06
2023-03-02T01:23:34.910Z,102707.97
2023-03-02T01:26:01.513Z,102699.31
2023-03-02T01:28:28.346Z,102700.19
2023-03-02T01:30:54.907Z,102693.56
2023-03-02T01:33:21.581Z,102698.09
2023-03-02T01:35:48.957Z,102687.91
2023-03-02T01:38:15.929Z,102696.69
2023-03-02T01:40:42.546Z,102693.31
2023-03-02T01:43:15.772Z,102696.03
2023-03-02T01:45:57.681Z,102688.19
2023-03-02T01:48:54.273Z,102687.47
2023-03-02T01:51:36.842Z,102692.84
2023-03-02T01:54:07.622Z,102683.44
2023-03-02T01:56:38.419Z,102681.13
2023-03-02T01:59:14.514Z,102664.84
2023-03-02T02:01:45.067Z,102668.56
2023-03-02T02:04:14.564Z,102665.22
2023-03-02T02:06:43.200Z,102651.94
2023-03-02T02:09:14.367Z,102654.59
2023-03-02T02:11:45.859Z,102644.97
2023-03-02T02:14:12.661Z,102655.50
2023-03-02T02:16:40.376Z,102652.84
2023-03-02T02:19:18.374Z,102650.91
2023-03-02T02:21:45.165Z,102658.50
2023-03-02T02:24:20.880Z,102659.19
2023-03-02T02:26:51.822Z,102651.25
2023-03-02T02:29:29.728Z,102657.09
2023-03-02T02:32:02.336Z,102658.50
2023-03-02T02:34:41.180Z,102654.00
2023-03-02T02:37:26.101Z,102641.63
2023-03-02T02:39:53.711Z,102649.28
2023-03-02T02:42:34.932Z,102642.97
2023-03-02T02:45:05.839Z,102635.09
2023-03-02T02:47:32.577Z,102645.69
2023-03-02T02:49:59.448Z,102635.19
2023-03-02T02:52:28.490Z,102642.25
2023-03-02T02:54:58.123Z,102636.97
2023-03-02T02:57:28.819Z,102638.72
2023-03-02T02:59:59.552Z,102629.28
2023-03-02T03:02:30.286Z,102635.53
2023-03-02T03:04:57.061Z,102639.94
2023-03-02T03:07:25.088Z,102638.19
2023-03-02T03:10:23.076Z,102646.13
2023-03-02T03:12:51.313Z,102650.47
2023-03-02T03:15:20.644Z,102649.66
2023-03-02T03:17:58.355Z,102641.81
2023-03-02T03:20:27.900Z,102640.13
2023-03-02T03:22:54.987Z,102639.25
2023-03-02T03:25:25.917Z,102643.84
2023-03-02T03:27:53.701Z,102636.06
2023-03-02T03:30:21.123Z,102642.25
2023-03-02T03:32:48.347Z,102640.84
2023-03-02T03:35:15.973Z,102627.03
2023-03-02T03:37:42.745Z,102637.75
2023-03-02T03:40:11.289Z,102640.56
2023-03-02T03:42:41.306Z,102635.00
2023-03-02T03:45:08.287Z,102646.72
2023-03-02T03:47:35.697Z,102647.56
2023-03-02T03:50:04.464Z,102649.47
2023-03-02T03:52:31.737Z,102633.75
2023-03-02T03:55:07.261Z,102650.38
2023-03-02T03:57:34.397Z,102647.59
2023-03-02T04:00:01.549Z,102650.38
2023-03-02T04:02:28.365Z,102642.44
2023-03-02T04:04:54.934Z,102633.56
2023-03-02T04:07:21.980Z,102640.03
2023-03-02T04:09:48.516Z,102649.47
2023-03-02T04:12:15.735Z,102653.19
2023-03-02T04:14:47.161Z,102653.38
2023-03-02T04:17:13.764Z,102653.53
2023-03-02T04:19:43.796Z,102651.84
2023-03-02T04:22:10.622Z,102643.03
2023-03-02T04:24:37.490Z,102656.72
2023-03-02T04:27:04.908Z,102653.38
2023-03-02T04:29:33.267Z,102654.22
2023-03-02T04:32:02.037Z,102649.81
2023-03-02T04:34:30.085Z,102655.94
2023-03-02T04:36:56.715Z,102654.94
2023-03-02T04:39:24.082Z,102662.91
2023-03-02T04:41:52.335Z,102668.03
2023-03-02T04:44:19.526Z,102661.31
2023-03-02T04:46:47.439Z,102654.75
2023-03-02T04:49:15.570Z,102654.75
2023-03-02T04:51:45.901Z,102669.69
2023-03-02T04:54:21.825Z,102674.19
2023-03-02T04:56:48.766Z,102672.44
2023-03-02T04:59:16.792Z,102674.13
2023-03-02T05:01:44.616Z,102657.41
2023-03-02T05:04:11.925Z,102667.13
2023-03-02T05:06:38.734Z,102676.75
2023-03-02T05:09:06.545Z,102663.44
2023-03-02T05:11:33.337Z,102672.25
2023-03-02T05:14:02.868Z,102661.06
2023-03-02T05:16:33.076Z,102656.72
2023-03-02T05:19:01.515Z,102670.69
2023-03-02T05:21:28.627Z,102660.31
2023-03-02T05:23:55.418Z,102659.44
2023-03-02T05:26:22.408Z,102655.84
2023-03-02T05:28:48.969Z,102656.72
2023-03-02T05:31:27.726Z,102659.09
2023-03-02T05:33:54.345Z,102659.00
2023-03-02T05:36:23.186Z,102670.50
2023-03-02T05:38:50.285Z,102671.22
2023-03-02T05:41:17.122Z,102677.47
2023-03-02T05:43:44.226Z,102666.97
2023-03-02T05:46:11.540Z,102675.72
2023-03-02T05:48:38.093Z,102666.97
2023-03-02T05:51:04.958Z,102668.81
2023-03-02T05:53:31.501Z,102673.16
2023-03-02T05:55:58.053Z,102677.56
2023-03-02T05:58:24.567Z,102668.91
2023-03-02T06:00:51.186Z,102660.06
2023-03-02T06:03:18.313Z,102662.00
2023-03-02T06:05:45.087Z,102665.38
2023-03-02T06:08:11.646Z,102658.56
2023-03-02T06:10:38.193Z,102668.03
2023-03-02T06:13:04.730Z,102667.13
2023-03-02T06:15:31.216Z,102670.84
2023-03-02T06:17:57.808Z,102657.88
2023-03-02T06:20:24.592Z,102661.56
2023-03-02T06:22:51.533Z,102665.81
2023-03-02T06:25:21.435Z,102660.59
2023-03-02T06:27:48.791Z,102665.72
2023-03-02T06:30:16.800Z,102658.13
2023-03-02T06:32:44.355Z,102664.13
2023-03-02T06:35:11.504Z,102656.25
2023-03-02T06:37:38.745Z,102657.66
2023-03-02T06:40:07.041Z,102658.50
2023-03-02T06:42:33.710Z,102657.63
2023-03-02T06:45:00.259Z,102665.38
2023-03-02T06:47:26.760Z,102660.06
2023-03-02T06:49:53.305Z,102658.06
2023-03-02T06:52:20.001Z,102665.00
2023-03-02T06:54:46.506Z,102656.03
2023-03-02T06:57:13.025Z,102662.94
2023-03-02T06:59:39.577Z,102675.81
2023-03-02T07:02:06.385Z,102683.44
2023-03-02T07:04:32.888Z,102669.44
2023-03-02T07:06:59.932Z,102671.22
2023-03-02T07:09:26.491Z,102685.88
2023-03-02T07:11:53.034Z,102680.66
2023-03-02T07:14:19.550Z,102676.19
2023-03-02T07:16:46.184Z,102679.69
2023-03-02T07:19:13.782Z,102677.75
2023-03-02T07:21:40.849Z,102683.66
2023-03-02T07:24:07.995Z,102679.44
2023-03-02T07:26:34.688Z,102676.19
2023-03-02T07:29:01.221Z,102686.78
2023-03-02T07:31:28.543Z,102679.09
2023-03-02T07:33:55.087Z,102683.50
2023-03-02T07:36:21.693Z,102675.91
2023-03-02T07:38:48.348Z,102680.41
2023-03-02T07:41:15.030Z,102676.16
2023-03-02T07:43:41.554Z,102675.63
2023-03-02T07:46:08.258Z,102686.22
2023-03-02T07:48:35.735Z,102683.84
2023-03-02T07:51:04.125Z,102688.59
2023-03-02T07:53:31.355Z,102683.66
2023-03-02T07:55:58.071Z,102680.53
2023-03-02T07:58:24.646Z,102668.50
2023-03-02T08:00:51.247Z,102677.03
2023-03-02T08:03:17.783Z,102685.25
2023-03-02T08:05:44.359Z,102685.59
2023-03-02T08:08:10.939Z,102685.94
2023-03-02T08:10:37.648Z,102683.16
2023-03-02T08:13:05.027Z,102681.94
2023-03-02T08:15:31.634Z,102666.53
2023-03-02T08:17:58.121Z,102684.50
2023-03-02T08:20:24.867Z,102689.25
2023-03-02T08:22:51.490Z,102683.66
2023-03-02T08:25:18.506Z,102682.56
2023-03-02T08:27:45.502Z,102694.59
2023-03-02T08:30:13.251Z,102686.56
2023-03-02T08:32:40.464Z,102689.03
2023-03-02T08:35:07.908Z,102694.06
2023-03-02T08:37:34.858Z,102696.56
2023-03-02T08:40:01.655Z,102698.19
2023-03-02T08:42:28.422Z,102701.56
2023-03-02T08:44:54.972Z,102700.66
2023-03-02T08:47:21.721Z,102702.22
2023-03-02T08:49:48.555Z,102706.19
2023-03-02T08:52:15.083Z,102693.47
2023-03-02T08:54:43.091Z,102684.19
2023-03-02T08:57:11.889Z,102708.13
2023-03-02T08:59:38.660Z,102711.66
2023-03-02T09:02:05.585Z,102722.25
2023-03-02T09:04:32.393Z,102707.66
2023-03-02T09:06:59.013Z,102720.75
2023-03-02T09:09:25.531Z,102717.41
2023-03-02T09:11:52.081Z,102715.19
2023-03-02T09:14:18.650Z,102705.97
2023-03-02T09:16:45.262Z,102706.38
2023-03-02T09:19:13.290Z,102708.91
2023-03-02T09:21:40.021Z,102718.75
2023-03-02T09:24:06.863Z,102718.91
2023-03-02T09:26:33.699Z,102705.38
2023-03-02T09:29:00.346Z,102717.41
2023-03-02T09:31:30.006Z,102716.53
2023-03-02T09:33:56.894Z,102717.03
2023-03-02T09:36:25.819Z,102726.25
2023-03-02T09:38:53.296Z,102727.47
2023-03-02T09:41:19.828Z,102726.72
2023-03-02T09:43:55.388Z,102723.81
2023-03-02T09:46:57.039Z,102718.97
2023-03-02T09:49:29.965Z,102729.81
2023-03-02T09:52:16.038Z,102716.16
2023-03-02T09:54:42.769Z,102723.72
2023-03-02T09:57:22.764Z,102713.88
2023-03-02T10:00:19.592Z,102717.03
2023-03-02T10:02:50.047Z,102721.38
2023-03-02T10:05:34.148Z,102722.41
2023-03-02T10:08:01.047Z,102731.81
2023-03-02T10:10:43.187Z,102725.47
2023-03-02T10:13:37.836Z,102739.16
2023-03-02T10:16:07.539Z,102737.75
2023-03-02T10:18:43.932Z,102743.47
2023-03-02T10:21:18.842Z,102740.97
2023-03-02T10:23:56.209Z,102745.94
2023-03-02T10:26:45.745Z,102735.28
2023-03-02T10:29:48.062Z,102738.41
2023-03-02T10:32:22.618Z,102741.56
2023-03-02T10:34:50.214Z,102735.34
2023-03-02T10:37:20.212Z,102734.81
2023-03-02T10:39:47.122Z,102736.06
2023-03-02T10:42:18.999Z,102738.97
2023-03-02T10:44:50.829Z,102730.56
2023-03-02T10:47:29.384Z,102733.47
2023-03-02T10:49:57.871Z,102729.25
2023-03-02T10:52:27.047Z,102728.59
2023-03-02T10:55:13.186Z,102727.19
2023-03-02T10:57:42.399Z,102723.84
2023-03-02T11:00:24.510Z,102725.03
2023-03-02T11:02:57.338Z,102719.78
2023-03-02T11:05:23.828Z,102725.00
2023-03-02T11:08:01.885Z,102720.59
2023-03-02T11:10:32.295Z,102722.22
2023-03-02T11:13:02.306Z,102734.38
2023-03-02T11:15:31.848Z,102737.78
2023-03-02T11:18:07.532Z,102725.56
2023-03-02T11:20:38.534Z,102718.63
2023-03-02T11:23:26.895Z,102728.13
2023-03-02T11:25:58.909Z,102729.88
2023-03-02T11:28:49.764Z,102729.81
2023-03-02T11:31:23.758Z,102716.69
2023-03-02T11:33:59.820Z,102716.66
2023-03-02T11:37:07.059Z,102717.31
2023-03-02T11:39:54.952Z,102726.44
2023-03-02T11:42:26.486Z,102718.09
2023-03-02T11:44:53.566Z,102704.44
2023-03-02T11:47:20.886Z,102705.81
2023-03-02T11:49:57.031Z,102709.03
2023-03-02T11:52:27.605Z,102709.47
2023-03-02T11:55:17.765Z,102706.34
2023-03-02T11:57:48.549Z,102698.00
2023-03-02T12:00:33.498Z,102700.34
2023-03-02T12:03:02.971Z,102702.19
2023-03-02T12:05:32.591Z,102703.19
2023-03-02T12:08:25.955Z,102690.97
2023-03-02T12:11:04.684Z,102703.81
2023-03-02T12:13:40.809Z,102689.63
2023-03-02T12:16:21.242Z,102699.81
2023-03-02T12:18:49.817Z,102697.06
2023-03-02T12:21:24.076Z,102692.16
2023-03-02T12:23:50.598Z,102688.78
2023-03-02T12:26:20.118Z,102685.31
2023-03-02T12:29:02.905Z,102689.44
2023-03-02T12:31:43.809Z,102679.72
2023-03-02T12:34:37.587Z,102688.78
2023-03-02T12:37:31.350Z,102684.69
2023-03-02T12:40:35.515Z,102697.16
2023-03-02T12:43:27.054Z,102686.22
2023-03-02T12:46:18.642Z,102684.88
2023-03-02T12:48:47.030Z,102683.31
2023-03-02T12:51:21.097Z,102691.38
2023-03-02T12:53:48.773Z,102680.25
2023-03-02T12:56:23.167Z,102682.25
2023-03-02T12:58:51.642Z,102682.44
2023-03-02T13:01:26.015Z,102674.81
2023-03-02T13:03:54.637Z,102675.91
2023-03-02T13:06:23.957Z,102670.78
2023-03-02T13:08:54.167Z,102676.16
2023-03-02T13:11:32.794Z,102673.63
2023-03-02T13:14:00.786Z,102683.34
2023-03-02T13:16:33.811Z,102687.00
2023-03-02T13:19:08.987Z,102678.53
2023-03-02T13:21:38.841Z,102677.75
2023-03-02T13:24:31.163Z,102673.41
2023-03-02T13:27:06.138Z,102660.06
2023-03-02T13:29:33.307Z,102656.34
2023-03-02T13:32:18.122Z,102665.03
2023-03-02T13:35:01.339Z,102661.53
2023-03-02T13:37:36.888Z,102662.44
2023-03-02T13:40:08.626Z,102660.91
2023-03-02T13:42:39.472Z,102645.47
2023-03-02T13:45:25.883Z,102643.03
2023-03-02T13:47:54.366Z,102644.66
2023-03-02T13:50:28.724Z,102650.66
2023-03-02T13:52:57.686Z,102638.41
2023-03-02T13:55:24.751Z,102640.19
2023-03-02T13:57:54.455Z,102644.53
2023-03-02T14:00:31.451Z,102639.34
2023-03-02T14:02:57.999Z,102645.47
2023-03-02T14:05:26.435Z,102648.13
2023-03-02T14:07:53.628Z,102639.56
2023-03-02T14:10:20.628Z,102647.56
2023-03-02T14:13:03.695Z,102641.63
2023-03-02T14:15:30.471Z,102645.41
2023-03-02T14:17:57.440Z,102635.25
2023-03-02T14:20:23.977Z,102629.44
2023-03-02T14:22:50.596Z,102633.91
2023-03-02T14:25:17.540Z,102639.06
2023-03-02T14:27:44.241Z,102631.13
2023-03-02T14:30:17.846Z,102628.63
2023-03-02T14:32:44.551Z,102628.75
2023-03-02T14:35:12.885Z,102633.25
2023-03-02T14:37:43.714Z,102631.59
2023-03-02T14:40:28.066Z,102632.59
2023-03-02T14:42:55.434Z,102636.97
2023-03-02T14:45:22.211Z,102632.44
2023-03-02T14:47:49.086Z,102636.63
2023-03-02T14:50:16.077Z,102627.06
2023-03-02T14:52:49.499Z,102633.28
2023-03-02T14:55:24.812Z,102626.56
2023-03-02T14:57:59.948Z,102624.16
2023-03-02T15:00:27.480Z,102622.56
2023-03-02T15:02:54.292Z,102622.66
2023-03-02T15:05:21.012Z,102629.66
2023-03-02T15:07:48.529Z,102618.31
2023-03-02T15:10:19.488Z,102624.47
2023-03-02T15:12:46.162Z,102626.19
2023-03-02T15:15:13.352Z,102621.88
2023-03-02T15:17:40.807Z,102603.50
2023-03-02T15:20:10.598Z,102613.00
2023-03-02T15:22:37.140Z,102600.72
2023-03-02T15:25:03.816Z,102608.31
2023-03-02T15:27:30.343Z,102599.47
2023-03-02T15:29:59.952Z,102602.66
2023-03-02T15:32:26.547Z,102585.72
2023-03-02T15:34:53.098Z,102596.78
2023-03-02T15:37:19.681Z,102600.94
2023-03-02T15:39:46.208Z,102592.03
2023-03-02T15:42:13.860Z,102593.44
2023-03-02T15:44:40.841Z,102595.72
2023-03-02T15:47:07.464Z,102585.81
2023-03-02T15:49:34.013Z,102586.31
2023-03-02T15:52:00.895Z,102592.03
2023-03-02T15:54:29.708Z,102597.00
2023-03-02T15:56:56.630Z,102588.19
2023-03-02T15:59:28.282Z,102589.66
2023-03-02T16:01:55.383Z,102592.16
2023-03-02T16:04:21.934Z,102586.03
2023-03-02T16:06:48.555Z,102596.50
2023-03-02T16:09:15.027Z,102599.00
2023-03-02T16:11:41.727Z,102596.91
2023-03-02T16:14:08.253Z,102599.94
2023-03-02T16:16:35.381Z,102602.78
2023-03-02T16:19:02.264Z,102602.13
2023-03-02T16:21:30.040Z,102610.31
2023-03-02T16:23:56.660Z,102609.94
2023-03-02T16:26:23.289Z,102609.75
2023-03-02T16:28:49.950Z,102605.94
2023-03-02T16:31:19.528Z,102608.38
2023-03-02T16:33:47.584Z,102612.91
2023-03-02T16:36:15.042Z,102616.41
2023-03-02T16:38:42.162Z,102624.22
2023-03-02T16:41:15.107Z,102617.09
2023-03-02T16:43:45.688Z,102625.31
2023-03-02T16:46:12.487Z,102626.56
2023-03-02T16:48:39.021Z,102629.69
2023-03-02T16:51:05.991Z,102628.44
2023-03-02T16:53:32.706Z,102623.78
2023-03-02T16:55:59.383Z,102626.97
2023-03-02T16:58:25.966Z,102641.56
2023-03-02T17:00:52.639Z,102640.38
2023-03-02T17:03:19.440Z,102645.22
2023-03-02T17:05:46.030Z,102653.44
2023-03-02T17:08:14.522Z,102649.44
2023-03-02T17:10:41.836Z,102657.72
2023-03-02T17:13:09.055Z,102660.75
2023-03-02T17:15:35.712Z,102667.38
2023-03-02T17:18:02.302Z,102663.53
2023-03-02T17:20:28.861Z,102665.66
2023-03-02T17:22:55.609Z,102675.84
2023-03-02T17:25:22.851Z,102668.47
2023-03-02T17:27:49.660Z,102671.72
2023-03-02T17:30:17.024Z,102670.50
2023-03-02T17:32:43.706Z,102674.34
2023-03-02T17:35:12.714Z,102680.88
2023-03-02T17:37:39.842Z,102687.41
2023-03-02T17:40:07.144Z,102690.41
2023-03-02T17:42:33.780Z,102691.00
2023-03-02T17:45:00.354Z,102685.22
2023-03-02T17:47:27.006Z,102688.28
2023-03-02T17:49:53.666Z,102692.25
2023-03-02T17:52:20.241Z,102702.22
2023-03-02T17:54:46.837Z,102701.66
2023-03-02T17:57:13.545Z,102703.81
2023-03-02T17:59:40.062Z,102714.00
2023-03-02T18:02:07.937Z,102708.59
2023-03-02T18:04:34.533Z,102709.78
2023-03-02T18:07:01.126Z,102725.09
2023-03-02T18:09:27.636Z,102729.06
2023-03-02T18:11:54.462Z,102726.06
2023-03-02T18:14:21.400Z,102721.50
2023-03-02T18:16:48.581Z,102737.97
2023-03-02T18:19:15.178Z,102729.06
2023-03-02T18:21:41.968Z,102742.13
2023-03-02T18:24:09.328Z,102735.00
2023-03-02T18:26:35.886Z,102739.31
2023-03-02T18:29:02.887Z,102742.72
2023-03-02T18:31:29.825Z,102729.69
2023-03-02T18:33:56.821Z,102740.97
2023-03-02T18:36:23.330Z,102744.34
2023-03-02T18:38:50.148Z,102745.97
2023-03-02T18:41:16.684Z,102753.03
2023-03-02T18:43:43.420Z,102753.03
2023-03-02T18:46:25.094Z,102753.94
2023-03-02T18:48:52.412Z,102751.28
2023-03-02T18:51:19.818Z,102755.75
2023-03-02T18:53:47.266Z,102748.69
2023-03-02T18:56:14.450Z,102741.56
2023-03-02T18:58:41.597Z,102755.03
2023-03-02T19:01:09.036Z,102755.03
2023-03-02T19:03:36.253Z,102752.47
2023-03-02T19:06:03.098Z,102744.69
2023-03-02T19:08:29.737Z,102749.88
2023-03-02T19:10:56.248Z,102755.19
2023-03-02T19:13:24.431Z,102751.66
2023-03-02T19:15:54.743Z,102748.44
2023-03-02T19:18:24.154Z,102753.50
2023-03-02T19:20:52.106Z,102755.03
2023-03-02T19:23:19.008Z,102756.34
2023-03-02T19:25:45.829Z,102763.41
2023-03-02T19:28:12.809Z,102769.38
2023-03-02T19:30:39.995Z,102771.88
2023-03-02T19:33:07.210Z,102781.25
2023-03-02T19:35:34.312Z,102782.00
2023-03-02T19:38:01.425Z,102771.34
2023-03-02T19:40:29.398Z,102783.41
2023-03-02T19:42:57.072Z,102791.16
2023-03-02T19:45:28.190Z,102794.47
2023-03-02T19:47:57.720Z,102788.41
2023-03-02T19:50:26.316Z,102794.94
2023-03-02T19:52:53.405Z,102789.91
2023-03-02T19:55:19.991Z,102784.63
2023-03-02T19:57:46.501Z,102776.66
2023-03-02T20:00:15.578Z,102790.78
2023-03-02T20:02:42.070Z,102795.88
2023-03-02T20:05:10.194Z,102795.88
2023-03-02T20:07:36.869Z,102797.72
2023-03-02T20:10:05.233Z,102801.19
2023-03-02T20:12:31.782Z,102801.09
2023-03-02T20:14:58.357Z,102803.59
2023-03-02T20:17:24.924Z,102812.13
2023-03-02T20:19:51.436Z,102811.13
2023-03-02T20:22:18.296Z,102818.94
2023-03-02T20:24:44.887Z,102827.75
2023-03-02T20:27:12.271Z,102819.81
2023-03-02T20:29:41.531Z,102831.91
2023-03-02T20:32:10.229Z,102824.09
2023-03-02T20:34:38.183Z,102822.16
2023-03-02T20:37:05.874Z,102838.66
2023-03-02T20:39:36.182Z,102840.19
2023-03-02T20:42:04.431Z,102836.81
2023-03-02T20:44:31.294Z,102842.75
2023-03-02T20:47:01.121Z,102839.25
2023-03-02T20:49:29.717Z,102845.13
2023-03-02T20:51:58.523Z,102846.78
2023-03-02T20:54:29.583Z,102843.31
2023-03-02T20:56:57.729Z,102846.03
2023-03-02T20:59:24.635Z,102841.63
2023-03-02T21:01:51.787Z,102842.50
2023-03-02T21:04:18.436Z,102834.69
2023-03-02T21:06:45.710Z,102835.50
2023-03-02T21:09:12.474Z,102837.34
2023-03-02T21:11:39.057Z,102838.16
2023-03-02T21:14:05.612Z,102840.94
2023-03-02T21:16:36.367Z,102842.63
2023-03-02T21:19:09.139Z,102850.50
2023-03-02T21:21:41.643Z,102847.78
2023-03-02T21:24:11.271Z,102847.06
2023-03-02T21:26:38.279Z,102851.47
2023-03-02T21:29:05.861Z,102850.50
2023-03-02T21:31:32.709Z,102857.59
2023-03-02T21:33:59.538Z,102849.84
2023-03-02T21:36:26.381Z,102847.91
2023-03-02T21:38:52.921Z,102853.22
2023-03-02T21:41:20.037Z,102855.88
2023-03-02T21:43:46.988Z,102852.44
2023-03-02T21:46:16.182Z,102861.94
2023-03-02T21:48:43.332Z,102855.72
2023-03-02T21:51:12.166Z,102860.00
2023-03-02T21:53:39.483Z,102853.31
2023-03-02T21:56:07.417Z,102862.72
2023-03-02T21:58:33.985Z,102854.13
2023-03-02T22:01:00.629Z,102864.50
2023-03-02T22:03:27.409Z,102847.88
2023-03-02T22:05:53.942Z,102849.69
2023-03-02T22:08:21.560Z,102853.34
2023-03-02T22:10:51.645Z,102856.78
2023-03-02T22:13:26.025Z,102847.34
2023-03-02T22:16:14.762Z,102854.13
2023-03-02T22:18:43.415Z,102853.22
2023-03-02T22:21:28.957Z,102858.22
2023-03-02T22:24:10.776Z,102847.78
2023-03-02T22:26:39.133Z,102847.78
2023-03-02T22:29:43.579Z,102845.09
2023-03-02T22:32:25.646Z,102846.78
2023-03-02T22:34:57.266Z,102846.63
2023-03-02T22:37:28.723Z,102855.31
2023-03-02T22:39:58.311Z,102849.09
2023-03-02T22:42:29.076Z,102840.88
2023-03-02T22:45:01.355Z,102845.44
2023-03-02T22:47:27.973Z,102831.34
2023-03-02T22:50:18.776Z,102852.38
2023-03-02T22:52:45.372Z,102847.09
2023-03-02T22:55:38.264Z,102848.00
2023-03-02T22:58:23.445Z,102853.31
2023-03-02T23:00:50.148Z,102850.75
2023-03-02T23:03:37.685Z,102854.22
2023-03-02T23:06:27.398Z,102834.03
2023-03-02T23:08:57.340Z,102852.56
2023-03-02T23:11:25.218Z,102839.34
2023-03-02T23:13:53.150Z,102834.19
2023-03-02T23:16:27.729Z,102857.81
2023-03-02T23:18:57.034Z,102850.06
2023-03-02T23:21:48.331Z,102843.81
2023-03-02T23:24:15.059Z,102850.88
2023-03-02T23:26:41.653Z,102854.25
2023-03-02T23:29:08.189Z,102853.97
2023-03-02T23:31:34.861Z,102861.06
2023-03-02T23:34:01.496Z,102854.13
2023-03-02T23:36:28.104Z,102855.75
2023-03-02T23:38:54.829Z,102860.09
2023-03-02T23:41:21.599Z,102860.91
2023-03-02T23:43:48.460Z,102840.00
2023-03-02T23:46:15.217Z,102846.91
2023-03-02T23:48:42.466Z,102851.47
2023-03-02T23:51:09.511Z,102848.81
2023-03-02T23:53:36.371Z,102841.94
2023-03-02T23:56:03.181Z,102845.31
2023-03-02T23:58:29.740Z,102848.78
